Data for 07/06/2014

Time Sea-Level Adjusted Pressure Absolute Pressure Temperature Relative Humidity Dew Point   
(mb) (inHg) (mb) (inHg) (C) (F) (%) (C) (F)
00:05 1024 30.24 853 25.19 17.6 63.6 49 7 44.5
00:10 1024 30.24 853 25.19 17.4 63.4 49 6.8 44.3
00:15 1024 30.24 853 25.19 17.4 63.4 50 6.9 44.5
00:20 1024 30.24 853 25.19 17.4 63.3 50 7 44.6
00:25 1024 30.24 853 25.19 17.3 63.1 50 6.9 44.4
00:30 1024 30.24 853 25.19 17.2 62.9 49 6.5 43.8
00:35 1024 30.24 853 25.19 17.3 63.2 48 6.4 43.4
00:40 1024 30.24 853 25.19 17.6 63.7 47 6.2 43.1
00:45 1024 30.24 853 25.19 17.7 63.8 47 6.4 43.5
00:50 1024 30.24 853 25.19 17.7 63.8 46 6 42.7
00:55 1024 30.24 853 25.19 17.8 64 53 8.1 46.5
01:00 1024 30.24 853 25.19 17.6 63.7 49 6.9 44.4
01:05 1024 30.24 853 25.19 17 62.7 52 7.1 44.8
01:10 1024 30.24 853 25.19 16.6 61.8 54 7.2 45
01:15 1024 30.24 853 25.19 15.9 60.6 56 7.1 44.9
01:20 1024 30.24 853 25.19 15.4 59.7 56 6.7 44
01:25 1024 30.24 853 25.19 15.6 60.2 52 5.8 42.4
01:30 1024 30.24 853 25.19 16 60.9 58 7.9 46.2
01:35 1024 30.24 853 25.19 16.2 61.1 52 6.4 43.6
01:40 1024 30.24 853 25.19 15.9 60.7 50 5.7 42.2
01:45 1024 30.24 853 25.19 16.2 61.1 50 5.9 42.7
01:50 1024 30.24 853 25.19 16.2 61.2 49 5.7 42.3
01:55 1024 30.24 853 25.19 16.4 61.5 50 6 42.7
02:00 1024 30.24 853 25.19 16.2 61.2 50 6 42.7
02:05 1024 30.24 853 25.19 16.1 61 50 5.8 42.5
02:10 1024 30.24 853 25.19 16 60.9 50 5.7 42.2
02:15 1024 30.24 853 25.19 16 60.8 49 5.5 41.8
02:20 1024 30.24 853 25.19 16.1 60.9 50 5.6 42.1
02:25 1024 30.24 853 25.19 16 60.8 49 5.5 41.8
02:30 1024 30.24 853 25.19 16.1 60.9 48 5.3 41.5
02:35 1024 30.24 853 25.19 16.3 61.3 48 5.4 41.7
02:40 1024 30.24 853 25.19 16.2 61.2 51 6.2 43.1
02:45 1024 30.24 853 25.19 16.1 61 49 5.6 42
02:50 1024 30.24 853 25.19 15.8 60.5 50 5.5 41.9
02:55 1024 30.24 853 25.19 16 60.9 47 4.9 40.8
03:00 1024 30.24 853 25.19 16 60.8 49 5.4 41.8
03:05 1024 30.24 853 25.19 15.7 60.3 50 5.4 41.8
03:10 1024 30.24 853 25.19 15.4 59.6 53 6 42.7
03:15 1024 30.24 853 25.19 14.8 58.7 55 5.9 42.7
03:20 1024 30.24 853 25.19 14.6 58.3 56 5.9 42.7
03:25 1024 30.24 853 25.19 14.5 58.2 55 5.8 42.4
03:30 1024 30.24 853 25.19 14.6 58.2 55 5.7 42.2
03:35 1024 30.24 853 25.19 14.8 58.6 53 5.3 41.6
03:40 1024 30.24 853 25.19 15 58.9 52 5.3 41.5
03:45 1024 30.24 853 25.19 14.9 58.8 52 5.3 41.6
03:50 1024 30.24 853 25.19 14.9 58.8 52 5.3 41.6
03:55 1024 30.24 853 25.19 15 58.9 50 4.8 40.7
04:00 1024 30.24 853 25.19 15.2 59.3 50 5 40.9
04:05 1024 30.24 853 25.19 15.2 59.3 51 5.2 41.3
04:10 1024 30.24 853 25.19 15.1 59.1 50 4.7 40.5
04:15 1024 30.24 853 25.19 15.2 59.4 49 4.7 40.4
04:20 1024 30.24 853 25.19 15.4 59.7 49 4.8 40.6
04:25 1024 30.24 853 25.19 15.3 59.6 49 4.9 40.8
04:30 1024 30.24 853 25.19 15.1 59.1 51 5.2 41.4
04:35 1024 30.24 853 25.19 14.7 58.4 55 5.8 42.5
04:40 1024 30.24 853 25.19 14.4 57.9 54 5.4 41.8
04:45 1024 30.24 853 25.19 14.3 57.7 54 5.3 41.5
04:50 1024 30.24 853 25.19 14.3 57.8 54 5.2 41.3
04:55 1024 30.24 853 25.19 14.5 58 53 5.1 41.1
05:00 1024 30.24 853 25.19 14.5 58.1 53 5.1 41.2
05:05 1024 30.24 853 25.19 14.7 58.4 53 5.3 41.5
05:10 1024 30.24 853 25.19 15 59.1 50 4.8 40.6
05:15 1024 30.24 853 25.19 15.3 59.5 49 4.8 40.7
05:20 1024 30.24 853 25.19 15.3 59.5 49 4.6 40.3
05:25 1024 30.24 853 25.19 15.5 59.8 49 5 41
05:30 1024 30.24 854 25.22 15.4 59.7 49 4.9 40.9
05:35 1024 30.24 854 25.22 15.1 59.3 53 5.6 42.1
05:40 1024 30.24 854 25.22 15.2 59.3 50 4.8 40.7
05:45 1024 30.24 854 25.22 15.3 59.5 52 5.5 41.9
05:50 1024 30.24 854 25.22 15.2 59.3 53 5.7 42.3
05:55 1024 30.24 854 25.22 15.2 59.3 51 5.2 41.3
06:00 1025 30.27 854 25.22 15.4 59.7 51 5.3 41.6
06:05 1025 30.27 854 25.22 15.6 60 51 5.5 41.9
06:10 1025 30.27 854 25.22 15.7 60.3 50 5.4 41.8
06:15 1025 30.27 854 25.22 16 60.9 52 6.2 43.2
06:20 1025 30.27 854 25.22 16.4 61.4 49 5.6 42.1
06:25 1025 30.27 854 25.22 16.5 61.6 48 5.5 42
06:30 1025 30.27 854 25.22 16.7 62.1 47 5.5 41.9
06:35 1025 30.27 854 25.22 17.1 62.8 46 5.6 42
06:40 1025 30.27 854 25.22 17.4 63.3 46 5.7 42.2
06:45 1025 30.27 854 25.22 17.7 63.9 46 6.1 43
06:50 1025 30.27 854 25.22 17.7 63.9 46 6.1 43
06:55 1025 30.27 854 25.22 17.8 64.1 48 6.9 44.4
07:00 1025 30.27 854 25.22 18.2 64.7 48 7 44.6
07:05 1025 30.27 854 25.22 18.5 65.2 48 7.5 45.5
07:10 1025 30.27 854 25.22 18.9 66 47 7.4 45.3
07:15 1025 30.27 854 25.22 19.3 66.7 44 7 44.6
07:20 1025 30.27 854 25.22 19.6 67.3 43 6.8 44.2
07:25 1024 30.24 854 25.22 19.7 67.4 43 6.9 44.5
07:30 1024 30.24 854 25.22 19.8 67.6 43 7.1 44.8
07:35 1024 30.24 853 25.19 20.5 68.8 42 7.2 45
07:40 1024 30.24 853 25.19 21.2 70.1 39 6.9 44.4
07:45 1024 30.24 853 25.19 21.6 70.9 39 7.3 45.1
07:50 1024 30.24 853 25.19 21.7 71.1 39 7.2 44.9
07:55 1024 30.24 854 25.22 21.9 71.4 38 6.9 44.5
08:00 1024 30.24 854 25.22 22.2 71.9 37 7 44.6
08:05 1024 30.24 854 25.22 21.9 71.4 37 6.8 44.2
08:10 1024 30.24 854 25.22 22.3 72.1 33 5.5 41.8
08:15 1024 30.24 854 25.22 22.3 72.2 30 4.3 39.7
08:20 1024 30.24 853 25.19 22.8 73 29 3.8 38.9
08:25 1024 30.24 853 25.19 23.4 74 28 4.1 39.4
08:30 1024 30.24 853 25.19 23.3 73.9 30 4.8 40.6
08:35 1024 30.24 853 25.19 23.4 74.2 30 5.2 41.4
08:40 1024 30.24 853 25.19 23 73.3 30 4.8 40.6
08:45 1024 30.24 853 25.19 23.8 74.8 29 4.7 40.4
08:50 1024 30.24 853 25.19 25 77 27 4.9 40.9
08:55 1024 30.24 853 25.19 25.5 77.8 26 4.7 40.5
09:00 1024 30.24 853 25.19 25.6 78.1 26 5.2 41.4
09:05 1024 30.24 853 25.19 25.1 77.2 26 4.5 40
09:10 1024 30.24 853 25.19 25.5 77.9 27 5.3 41.5
09:15 1024 30.24 853 25.19 26 78.9 25 4.6 40.3
09:20 1024 30.24 853 25.19 26.6 79.9 26 5.6 42
09:25 1024 30.24 853 25.19 26 78.7 25 4.6 40.3
09:30 1024 30.24 853 25.19 25.2 77.4 27 5.3 41.5
09:35 1024 30.24 853 25.19 26.2 79.1 24 4.1 39.3
09:40 1024 30.24 853 25.19 26 78.8 24 3.9 39.1
09:45 1024 30.24 853 25.19 25.8 78.4 23 3.5 38.4
09:50 1024 30.24 853 25.19 26.4 79.4 25 5.2 41.4
09:55 1024 30.24 853 25.19 26.2 79.1 25 4.9 40.8
10:00 1024 30.24 853 25.19 26.5 79.7 23 4.1 39.4
10:05 1023 30.21 853 25.19 27 80.6 24 5.1 41.2
10:10 1023 30.21 853 25.19 26.5 79.8 25 4.9 40.8
10:15 1023 30.21 853 25.19 26.7 80 23 3.9 39.1
10:20 1023 30.21 853 25.19 27.6 81.7 24 5.7 42.3
10:25 1023 30.21 853 25.19 27.8 82 22 4.6 40.3
10:30 1023 30.21 852 25.16 27.1 80.8 23 4.5 40.2
10:35 1023 30.21 852 25.16 28.2 82.8 23 5.4 41.7
10:40 1023 30.21 852 25.16 28.2 82.7 23 5.5 41.9
10:45 1023 30.21 852 25.16 27.9 82.1 24 5.7 42.3
10:50 1023 30.21 852 25.16 28.2 82.8 22 5.1 41.1
10:55 1023 30.21 852 25.16 29.1 84.4 21 5.1 41.2
11:00 1023 30.21 852 25.16 29.9 85.9 22 5.9 42.7
11:05 1023 30.21 852 25.16 29.1 84.5 22 5.4 41.7
11:10 1023 30.21 852 25.16 28.6 83.5 22 4.9 40.7
11:15 1023 30.21 852 25.16 29.7 85.5 21 5.3 41.6
11:20 1023 30.21 852 25.16 29.8 85.6 22 6.2 43.1
11:25 1023 30.21 852 25.16 29.9 85.8 21 5.5 41.9
11:30 1023 30.21 852 25.16 30 85.9 20 5.1 41.2
11:35 1023 30.21 852 25.16 29.5 85.2 22 5.6 42.1
11:40 1023 30.21 852 25.16 30.1 86.2 21 5.5 41.9
11:45 1023 30.21 852 25.16 30.1 86.2 21 6 42.8
11:50 1023 30.21 852 25.16 29.4 84.9 22 5.7 42.3
11:55 1023 30.21 852 25.16 29.1 84.3 21 4.8 40.7
12:00 1023 30.21 852 25.16 29.8 85.6 19 3.9 39
12:05 1023 30.21 852 25.16 30.3 86.5 19 4.5 40.2
12:10 1023 30.21 852 25.16 30.5 86.9 18 4.2 39.6
12:15 1023 30.21 852 25.16 30.8 87.4 18 3.7 38.7
12:20 1023 30.21 852 25.16 30.5 86.9 18 3.6 38.5
12:25 1023 30.21 852 25.16 30.6 87.1 18 4.1 39.3
12:30 1022 30.18 852 25.16 29.5 85.1 18 3.3 37.9
12:35 1022 30.18 852 25.16 29.2 84.5 18 2.9 37.3
12:40 1022 30.18 852 25.16 29.4 84.8 18 2.9 37.2
12:45 1022 30.18 852 25.16 29.7 85.5 17 2.8 37
12:50 1022 30.18 852 25.16 30 86 19 4 39.2
12:55 1022 30.18 851 25.13 29.9 85.8 18 3.6 38.5
13:00 1022 30.18 851 25.13 29.2 84.5 18 2.5 36.5
13:05 1022 30.18 851 25.13 29.3 84.7 17 2.2 35.9
13:10 1022 30.18 851 25.13 29.4 85 18 2.8 37.1
13:15 1022 30.18 851 25.13 30.3 86.6 17 3.1 37.7
13:20 1022 30.18 851 25.13 30 85.9 17 2.9 37.3
13:25 1022 30.18 851 25.13 30 86.1 17 3 37.4
13:30 1022 30.18 851 25.13 30.8 87.4 17 3.4 38.2
13:35 1022 30.18 851 25.13 30.4 86.6 20 4.9 40.8
13:40 1022 30.18 851 25.13 30.4 86.6 17 3 37.4
13:45 1022 30.18 851 25.13 30.2 86.4 18 3.4 38.2
13:50 1022 30.18 851 25.13 30.4 86.8 18 3.6 38.5
13:55 1022 30.18 851 25.13 29.2 84.6 19 3.7 38.7
14:00 1022 30.18 851 25.13 29.3 84.7 19 3.5 38.3
14:05 1022 30.18 851 25.13 29.6 85.2 19 4 39.2
14:10 1022 30.18 851 25.13 29.1 84.4 19 3.7 38.7
14:15 1021 30.15 851 25.13 29.4 84.9 19 4 39.2
14:20 1021 30.15 851 25.13 29.3 84.7 19 3.5 38.4
14:25 1021 30.15 851 25.13 30.4 86.6 19 4.5 40.1
14:30 1021 30.15 851 25.13 29.9 85.8 19 4.2 39.5
14:35 1021 30.15 850 25.1 29.7 85.5 20 4.4 39.9
14:40 1021 30.15 850 25.1 29.7 85.5 19 4 39.1
14:45 1021 30.15 850 25.1 30.2 86.4 20 4.8 40.7
14:50 1021 30.15 850 25.1 30 86 19 4.4 39.9
14:55 1021 30.15 850 25.1 31 87.8 18 4.5 40.2
15:00 1021 30.15 850 25.1 31.5 88.6 18 4.4 40
15:05 1021 30.15 850 25.1 31.6 88.9 18 4.8 40.7
15:10 1021 30.15 850 25.1 31.9 89.4 18 5 41
15:15 1021 30.15 850 25.1 31.9 89.5 17 4.5 40
15:20 1021 30.15 850 25.1 32 89.6 18 5 40.9
15:25 1021 30.15 850 25.1 31.7 89.1 18 4.8 40.7
15:30 1021 30.15 850 25.1 32.1 89.7 18 5.4 41.6
15:35 1021 30.15 850 25.1 31.9 89.3 18 5.2 41.4
15:40 1021 30.15 850 25.1 32.3 90.2 18 5.8 42.4
15:45 1021 30.15 850 25.1 32.1 89.8 19 5.6 42.1
15:50 1021 30.15 850 25.1 31.9 89.4 18 5.3 41.5
15:55 1020 30.12 850 25.1 32.7 90.8 18 5.7 42.3
16:00 1020 30.12 850 25.1 32.3 90.1 19 5.9 42.6
16:05 1020 30.12 850 25.1 32.3 90.2 19 5.8 42.4
16:10 1020 30.12 850 25.1 32.2 90 18 5.3 41.6
16:15 1020 30.12 850 25.1 32.3 90.1 17 4.6 40.2
16:20 1020 30.12 850 25.1 32.3 90.2 18 5.3 41.6
16:25 1020 30.12 849 25.07 32.4 90.3 17 4.9 40.9
16:30 1020 30.12 849 25.07 32.4 90.2 18 5.1 41.3
16:35 1020 30.12 849 25.07 32.5 90.6 17 4.7 40.5
16:40 1020 30.12 849 25.07 31.7 89 19 5.3 41.6
16:45 1020 30.12 849 25.07 31.5 88.7 19 5.2 41.4
16:50 1020 30.12 849 25.07 31.3 88.3 19 5.5 41.8
16:55 1020 30.12 849 25.07 31.9 89.3 17 4.6 40.2
17:00 1020 30.12 849 25.07 32 89.7 19 5.8 42.4
17:05 1020 30.12 849 25.07 32.1 89.8 18 5 41
17:10 1020 30.12 849 25.07 31.7 89.1 17 4.3 39.8
17:15 1020 30.12 849 25.07 31.9 89.4 18 4.9 40.8
17:20 1020 30.12 849 25.07 31.5 88.6 19 5.3 41.5
17:25 1020 30.12 849 25.07 30.7 87.3 20 5.3 41.5
17:30 1020 30.12 849 25.07 30.4 86.7 20 5.3 41.6
17:35 1020 30.12 849 25.07 30.5 86.9 20 5.5 41.8
17:40 1020 30.12 849 25.07 29.6 85.2 23 6.4 43.4
17:45 1020 30.12 849 25.07 29.1 84.3 23 6.1 42.9
17:50 1020 30.12 849 25.07 29.1 84.3 23 5.9 42.6
17:55 1020 30.12 849 25.07 29.3 84.7 22 6 42.7
18:00 1020 30.12 849 25.07 29.4 84.9 23 6.4 43.5
18:05 1020 30.12 849 25.07 29.4 85 23 6.8 44.2
18:10 1020 30.12 849 25.07 29.1 84.4 25 7.3 45.2
18:15 1020 30.12 849 25.07 28.8 83.9 24 6.7 44.1
18:20 1020 30.12 849 25.07 28.9 84 25 7 44.6
18:25 1020 30.12 849 25.07 28.7 83.7 26 7.6 45.7
18:30 1020 30.12 849 25.07 28.4 83.2 27 7.8 46.1
18:35 1020 30.12 849 25.07 28.1 82.6 27 7.4 45.4
18:40 1020 30.12 849 25.07 28.2 82.7 26 7.2 45
18:45 1020 30.12 849 25.07 28 82.5 28 7.9 46.3
18:50 1020 30.12 849 25.07 28.1 82.6 27 7.7 45.9
18:55 1020 30.12 849 25.07 28.2 82.8 27 8 46.4
19:00 1020 30.12 849 25.07 28 82.4 26 7.1 44.9
19:05 1020 30.12 849 25.07 27.9 82.2 27 7.6 45.7
19:10 1020 30.12 849 25.07 27.7 81.9 26 7 44.5
19:15 1020 30.12 849 25.07 27.7 81.8 27 7.4 45.3
19:20 1020 30.12 849 25.07 27.2 80.9 32 9.4 49
19:25 1020 30.12 849 25.07 26.6 79.8 34 9.7 49.4
19:30 1020 30.12 849 25.07 26.4 79.5 32 8.7 47.7
19:35 1020 30.12 849 25.07 26.2 79.1 35 9.6 49.3
19:40 1020 30.12 849 25.07 25.9 78.6 33 8.5 47.4
19:45 1020 30.12 849 25.07 25.6 78.1 32 8 46.4
19:50 1020 30.12 849 25.07 25.4 77.7 34 8.6 47.5
19:55 1020 30.12 849 25.07 25.2 77.4 32 7.6 45.6
20:00 1020 30.12 849 25.07 25.1 77.2 32 7.3 45.1
20:05 1020 30.12 849 25.07 24.9 76.9 32 7.2 44.9
20:10 1020 30.12 849 25.07 24.8 76.7 32 7.3 45.2
20:15 1020 30.12 849 25.07 24.7 76.5 33 7.4 45.4
20:20 1020 30.12 849 25.07 24.6 76.2 33 7.6 45.7
20:25 1020 30.12 849 25.07 24.3 75.8 38 9.3 48.7
20:30 1020 30.12 849 25.07 23.9 75 36 8.3 46.9
20:35 1020 30.12 849 25.07 23.6 74.4 38 8.8 47.9
20:40 1020 30.12 849 25.07 23.3 73.9 41 9.4 49
20:45 1020 30.12 849 25.07 23 73.4 47 11.3 52.3
20:50 1020 30.12 850 25.1 22.5 72.6 46 10.6 51
20:55 1020 30.12 850 25.1 22.1 71.7 49 11 51.8
21:00 1021 30.15 850 25.1 21.7 71 49 10.7 51.2
21:05 1021 30.15 850 25.1 21.6 70.8 48 10.4 50.7
21:10 1021 30.15 850 25.1 21.4 70.4 50 10.6 51.1
21:15 1021 30.15 850 25.1 20.9 69.7 52 11 51.7
21:20 1021 30.15 850 25.1 20.6 69.2 51 10.3 50.6
21:25 1021 30.15 850 25.1 20.5 69 51 10.2 50.4
21:30 1021 30.15 850 25.1 20.4 68.7 51 10.1 50.2
21:35 1021 30.15 850 25.1 20.3 68.6 51 10 50
21:40 1021 30.15 850 25.1 20.3 68.5 50 9.7 49.5
21:45 1021 30.15 850 25.1 20.2 68.4 50 9.5 49.2
21:50 1021 30.15 850 25.1 20.3 68.5 51 9.9 49.7
21:55 1021 30.15 850 25.1 20.4 68.6 48 9.1 48.3
22:00 1021 30.15 850 25.1 20.3 68.6 48 9.1 48.4
22:05 1021 30.15 850 25.1 20.2 68.4 50 9.5 49.1
22:10 1021 30.15 850 25.1 20.2 68.3 49 9.3 48.8
22:15 1021 30.15 850 25.1 19.9 67.8 51 9.5 49.2
22:20 1021 30.15 850 25.1 19.7 67.5 50 9.1 48.4
22:25 1021 30.15 850 25.1 19.7 67.5 53 9.9 49.9
22:30 1021 30.15 850 25.1 19.8 67.7 48 8.6 47.4
22:35 1021 30.15 850 25.1 20.1 68.1 46 8.4 47.1
22:40 1021 30.15 850 25.1 20.2 68.3 45 8.1 46.6
22:45 1021 30.15 850 25.1 20.3 68.6 43 7.5 45.4
22:50 1021 30.15 850 25.1 20.6 69 40 6.7 44
22:55 1021 30.15 850 25.1 20.6 69 40 6.7 44
23:00 1021 30.15 850 25.1 20.6 69.1 40 6.9 44.4
23:05 1021 30.15 850 25.1 20.5 68.9 41 6.9 44.3
23:10 1021 30.15 850 25.1 20.6 69.2 40 6.6 43.9
23:15 1021 30.15 850 25.1 20.6 69 39 6.3 43.4
23:20 1021 30.15 850 25.1 20.5 68.8 41 6.8 44.3
23:25 1021 30.15 850 25.1 20.3 68.5 41 6.9 44.4
23:30 1021 30.15 850 25.1 20 68 46 8.2 46.8
23:35 1021 30.15 850 25.1 19.9 67.8 44 7.5 45.5
23:40 1021 30.15 850 25.1 19.7 67.4 45 7.5 45.6
23:45 1021 30.15 850 25.1 19.6 67.3 45 7.6 45.7
23:50 1021 30.15 850 25.1 19.4 67 44 7 44.6
23:55 1021 30.15 850 25.1 19.7 67.4 45 7.5 45.4
24:00 1021 30.15 850 25.1 19.9 67.8 42 6.7 44.1